Skip Navigation Links
NOAA logo - Click to go to the NOAA homepage
NOAA's National Weather Service
Alaska Aviation Weather Unit
  NWS logo - Click to go to the NWS homepage
Left Navbar Graphic     22 AKDT = 06 GMT

   
NOAA is celebrating 200 years of science, service, and stewardship. Visit the NOAA 200th celebration Web site to learn more.
USA.gov is the U.S. Government's official Web portal to all Federal, state and local government Web resources and services.
Facebook
NWS on Facebook

Important Change Regarding the AAWU Web Presence

 

Over the last several months, the AAWU has been working to navigate its webpages to a nationally supported server. Security, as well as other needs, have necessitated the change.  In the process, we have made an effort to enhance the functionality of our website, as well as some of our products. As of June 20, 2017, aawu.arh.noaa.gov will be discontinued. The new AAWU web address is weather.gov/aawu. It is now live and will run in-parallel with the old site until it is discontinued. Please send any feedback or questions regarding the new webpages to nws.ar.aawu.webauthors@noaa.gov.  Thank you for your patience during this time of transition.
AAWU Home :: Display TAF Add Bookmark
METAR PAHC 280056Z AUTO 00000KT 10SM RA FEW024 BKN036 OVC055 05/03 A2995
     RMK AO2 RAB14 SLP146 T00500033 PNO $=

PAHC 280119Z AUTO 22005KT 10SM RA SCT024 BKN029 OVC035 06/04 A2995
     RMK AO2 PNO $=

METAR PAHC 280156Z AUTO VRB03KT 10SM -RA FEW019 SCT030 BKN070 07/04
     A2992 RMK AO2 SLP138 T00670039 PNO $=

METAR PAHC 280256Z AUTO VRB04KT 10SM CLR 09/04 A2991 RMK AO2 RAE02
     SLP134 6//// T00890044 56012 PNO $=

METAR PAHC 280356Z AUTO 07006KT 10SM FEW060 SCT080 SCT095 08/03 A2991
     RMK AO2 SLP134 T00830033 PNO $=

METAR PAHC 280456Z AUTO 00000KT 10SM -RA FEW027 BKN035 OVC065 07/03
 A2992 RMK AO2 RAB07E20B48 SLP138 T00670028 PNO $=

METAR PAHC 280556Z AUTO 00000KT 10SM FEW048 SCT070 BKN120 07/04
 A2991 RMK AO2 RAE14 SLP133 6//// T00670039 10089 20044 58001 PNO
 $=


NOAA's National Weather Service
Alaska Aviation Weather Unit
6930 Sand Lake Road
Anchorage, AK 99502-1845
Disclaimer
Credits
Glossary
Privacy Policy
About Us
Career Opportunities
Contact AAWU Internet Services Site last modified: April, 17th 2012